createdAt,value
2017-11-19T00:02:15.397Z,51.10
2017-11-19T00:04:42.924Z,50.60
2017-11-19T00:07:10.452Z,50.80
2017-11-19T00:09:37.968Z,51.00
2017-11-19T00:12:05.496Z,50.50
2017-11-19T00:14:33.781Z,50.20
2017-11-19T00:17:01.316Z,50.10
2017-11-19T00:19:29.593Z,50.20
2017-11-19T00:21:57.131Z,50.20
2017-11-19T00:24:24.657Z,50.50
2017-11-19T00:26:52.179Z,50.60
2017-11-19T00:29:20.465Z,49.90
2017-11-19T00:31:48.004Z,49.80
2017-11-19T00:34:15.512Z,50.10
2017-11-19T00:36:43.031Z,50.00
2017-11-19T00:39:11.307Z,50.60
2017-11-19T00:41:39.591Z,50.80
2017-11-19T00:44:07.867Z,50.70
2017-11-19T00:46:36.154Z,50.70
2017-11-19T00:49:03.692Z,50.70
2017-11-19T00:51:31.989Z,51.10
2017-11-19T00:53:59.587Z,51.00
2017-11-19T00:56:27.328Z,51.20
2017-11-19T00:58:54.851Z,51.10
2017-11-19T01:01:22.376Z,51.20
2017-11-19T01:03:49.889Z,51.30
2017-11-19T01:06:17.428Z,51.40
2017-11-19T01:08:44.944Z,51.60
2017-11-19T01:11:12.473Z,51.90
2017-11-19T01:13:39.989Z,52.10
2017-11-19T01:16:07.519Z,52.40
2017-11-19T01:18:35.037Z,52.80
2017-11-19T01:21:03.359Z,53.10
2017-11-19T01:23:31.434Z,53.00
2017-11-19T01:25:59.173Z,52.90
2017-11-19T01:28:26.690Z,53.40
2017-11-19T01:30:54.219Z,53.70
2017-11-19T01:33:21.755Z,53.90
2017-11-19T01:35:49.288Z,54.30
2017-11-19T01:38:17.564Z,54.70
2017-11-19T01:40:46.605Z,54.90
2017-11-19T01:43:15.065Z,54.70
2017-11-19T01:45:42.588Z,55.10
2017-11-19T01:48:10.385Z,55.20
2017-11-19T01:50:37.917Z,54.90
2017-11-19T01:53:05.703Z,55.60
2017-11-19T01:55:33.435Z,55.70
2017-11-19T01:58:00.950Z,55.80
2017-11-19T02:00:29.244Z,56.10
2017-11-19T02:02:56.792Z,56.00
2017-11-19T02:05:24.313Z,56.10
2017-11-19T02:07:53.245Z,56.30
2017-11-19T02:10:20.963Z,55.90
2017-11-19T02:12:49.573Z,56.30
2017-11-19T02:15:17.105Z,56.10
2017-11-19T02:17:45.396Z,56.40
2017-11-19T02:20:13.721Z,56.40
2017-11-19T02:22:41.256Z,56.40
2017-11-19T02:25:08.771Z,56.40
2017-11-19T02:27:36.301Z,56.50
2017-11-19T02:30:03.830Z,56.70
2017-11-19T02:32:31.414Z,56.80
2017-11-19T02:34:58.952Z,56.90
2017-11-19T02:37:27.263Z,57.30
2017-11-19T02:39:54.772Z,57.30
2017-11-19T02:42:22.304Z,57.30
2017-11-19T02:44:49.820Z,57.40
2017-11-19T02:47:17.361Z,57.50
2017-11-19T02:49:44.888Z,57.40
2017-11-19T02:52:12.436Z,57.50
2017-11-19T02:54:39.969Z,57.50
2017-11-19T02:57:07.513Z,57.60
2017-11-19T02:59:35.052Z,57.60
2017-11-19T03:02:02.587Z,57.70
2017-11-19T03:04:30.097Z,57.90
2017-11-19T03:06:57.627Z,57.80
2017-11-19T03:09:25.179Z,57.80
2017-11-19T03:11:53.458Z,58.00
2017-11-19T03:14:21.763Z,58.10
2017-11-19T03:16:49.281Z,58.10
2017-11-19T03:19:16.809Z,58.30
2017-11-19T03:21:44.318Z,58.40
2017-11-19T03:24:12.621Z,58.80
2017-11-19T03:26:40.144Z,58.80
2017-11-19T03:29:08.462Z,59.00
2017-11-19T03:31:35.989Z,58.90
2017-11-19T03:34:04.280Z,59.20
2017-11-19T03:36:31.822Z,59.20
2017-11-19T03:38:59.352Z,59.30
2017-11-19T03:41:26.863Z,59.30
2017-11-19T03:43:54.404Z,59.40
2017-11-19T03:46:21.921Z,59.40
2017-11-19T03:48:49.452Z,59.50
2017-11-19T03:51:17.726Z,59.60
2017-11-19T03:53:45.252Z,59.60
2017-11-19T03:56:13.527Z,59.60
2017-11-19T03:58:41.817Z,59.80
2017-11-19T04:01:09.334Z,59.60
2017-11-19T04:03:36.845Z,60.50
2017-11-19T04:06:04.357Z,59.80
2017-11-19T04:08:31.867Z,59.90
2017-11-19T04:10:59.400Z,59.90
2017-11-19T04:13:27.685Z,60.30
2017-11-19T04:15:55.219Z,60.20
2017-11-19T04:18:22.732Z,60.20
2017-11-19T04:20:50.263Z,60.30
2017-11-19T04:23:17.774Z,60.40
2017-11-19T04:25:45.292Z,60.50
2017-11-19T04:28:12.825Z,60.70
2017-11-19T04:30:40.349Z,60.70
2017-11-19T04:33:07.855Z,60.80
2017-11-19T04:35:36.144Z,61.00
2017-11-19T04:38:03.657Z,60.90
2017-11-19T04:40:31.193Z,61.00
2017-11-19T04:42:58.722Z,61.10
2017-11-19T04:45:26.260Z,61.30
2017-11-19T04:47:54.528Z,61.50
2017-11-19T04:50:22.068Z,61.40
2017-11-19T04:52:49.568Z,61.60
2017-11-19T04:55:17.852Z,61.80
2017-11-19T04:57:45.366Z,61.80
2017-11-19T05:00:12.914Z,61.60
2017-11-19T05:02:40.423Z,61.70
2017-11-19T05:05:08.711Z,61.60
2017-11-19T05:07:36.241Z,61.60
2017-11-19T05:10:04.584Z,61.20
2017-11-19T05:12:32.100Z,61.20
2017-11-19T05:14:59.633Z,61.30
2017-11-19T05:17:27.932Z,61.30
2017-11-19T05:19:55.447Z,61.20
2017-11-19T05:22:22.974Z,61.30
2017-11-19T05:24:50.480Z,61.20
2017-11-19T05:27:18.789Z,61.10
2017-11-19T05:29:46.289Z,60.90
2017-11-19T05:32:13.803Z,61.00
2017-11-19T05:34:42.089Z,61.00
2017-11-19T05:37:09.617Z,61.00
2017-11-19T05:39:37.129Z,61.10
2017-11-19T05:42:04.673Z,61.10
2017-11-19T05:44:32.191Z,61.90
2017-11-19T05:46:59.721Z,61.10
2017-11-19T05:49:27.240Z,61.00
2017-11-19T05:51:55.532Z,60.90
2017-11-19T05:54:23.044Z,60.80
2017-11-19T05:56:50.578Z,60.70
2017-11-19T05:59:18.086Z,60.70
2017-11-19T06:01:46.373Z,60.90
2017-11-19T06:04:13.900Z,60.90
2017-11-19T06:06:41.426Z,60.90
2017-11-19T06:09:08.940Z,61.00
2017-11-19T06:11:37.238Z,61.20
2017-11-19T06:14:04.770Z,61.00
2017-11-19T06:16:32.296Z,61.00
2017-11-19T06:18:59.808Z,61.00
2017-11-19T06:21:27.329Z,61.00
2017-11-19T06:23:54.849Z,61.00
2017-11-19T06:26:22.374Z,60.90
2017-11-19T06:28:49.908Z,61.00
2017-11-19T06:31:17.420Z,61.10
2017-11-19T06:33:44.947Z,61.30
2017-11-19T06:36:12.537Z,61.30
2017-11-19T06:38:40.227Z,61.40
2017-11-19T06:41:07.730Z,61.60
2017-11-19T06:43:36.027Z,61.80
2017-11-19T06:46:03.565Z,61.70
2017-11-19T06:48:31.860Z,61.90
2017-11-19T06:50:59.430Z,61.80
2017-11-19T06:53:27.151Z,61.90
2017-11-19T06:55:54.684Z,61.90
2017-11-19T06:58:22.200Z,61.90
2017-11-19T07:00:49.718Z,61.80
2017-11-19T07:03:17.243Z,62.00
2017-11-19T07:05:44.756Z,62.10
2017-11-19T07:08:13.056Z,62.20
2017-11-19T07:10:40.556Z,62.10
2017-11-19T07:13:08.102Z,62.00
2017-11-19T07:15:35.603Z,62.00
2017-11-19T07:18:03.113Z,62.20
2017-11-19T07:20:30.654Z,62.20
2017-11-19T07:22:58.178Z,62.20
2017-11-19T07:25:25.716Z,62.00
2017-11-19T07:27:53.249Z,61.90
2017-11-19T07:30:20.767Z,62.00
2017-11-19T07:32:49.043Z,61.90
2017-11-19T07:35:17.337Z,62.50
2017-11-19T07:37:46.513Z,61.90
2017-11-19T07:40:14.049Z,61.80
2017-11-19T07:42:41.553Z,62.10
2017-11-19T07:45:09.837Z,62.00
2017-11-19T07:47:37.338Z,61.90
2017-11-19T07:50:04.864Z,62.00
2017-11-19T07:52:32.364Z,62.00
2017-11-19T07:54:59.895Z,61.70
2017-11-19T07:57:27.417Z,62.00
2017-11-19T07:59:55.709Z,62.00
2017-11-19T08:02:23.216Z,61.90
2017-11-19T08:04:50.752Z,62.10
2017-11-19T08:07:18.262Z,62.20
2017-11-19T08:09:46.561Z,62.60
2017-11-19T08:12:14.826Z,62.70
2017-11-19T08:14:43.134Z,62.50
2017-11-19T08:17:10.644Z,62.40
2017-11-19T08:19:38.622Z,62.60
2017-11-19T08:22:06.123Z,62.40
2017-11-19T08:24:33.628Z,62.50
2017-11-19T08:27:01.161Z,62.20
2017-11-19T08:29:28.663Z,62.00
2017-11-19T08:31:56.226Z,61.90
2017-11-19T08:34:24.525Z,62.00
2017-11-19T08:36:52.043Z,61.90
2017-11-19T08:39:19.547Z,61.80
2017-11-19T08:41:47.076Z,61.70
2017-11-19T08:44:15.371Z,62.20
2017-11-19T08:46:42.901Z,62.10
2017-11-19T08:49:10.477Z,62.40
2017-11-19T08:51:38.797Z,62.40
2017-11-19T08:54:06.309Z,62.30
2017-11-19T08:56:33.859Z,62.30
2017-11-19T08:59:01.379Z,62.40
2017-11-19T09:01:28.906Z,62.30
2017-11-19T09:03:56.411Z,62.60
2017-11-19T09:06:24.575Z,62.60
2017-11-19T09:08:52.909Z,62.30
2017-11-19T09:11:21.207Z,62.60
2017-11-19T09:13:48.712Z,62.40
2017-11-19T09:16:16.245Z,62.60
2017-11-19T09:18:43.751Z,62.60
2017-11-19T09:21:11.296Z,62.60
2017-11-19T09:23:38.817Z,62.70
2017-11-19T09:26:06.339Z,62.70
2017-11-19T09:28:34.625Z,62.30
2017-11-19T09:31:02.917Z,62.30
2017-11-19T09:33:30.439Z,62.30
2017-11-19T09:35:57.960Z,62.60
2017-11-19T09:38:25.500Z,62.50
2017-11-19T09:40:53.007Z,62.60
2017-11-19T09:43:20.533Z,62.90
2017-11-19T09:45:48.060Z,63.20
2017-11-19T09:48:16.351Z,63.30
2017-11-19T09:50:43.984Z,63.30
2017-11-19T09:53:11.515Z,63.30
2017-11-19T09:55:39.025Z,63.30
2017-11-19T09:58:06.547Z,63.10
2017-11-19T10:00:34.070Z,63.10
2017-11-19T10:03:01.601Z,63.70
2017-11-19T10:05:29.124Z,63.40
2017-11-19T10:07:56.647Z,63.30
2017-11-19T10:10:24.179Z,63.40
2017-11-19T10:12:51.692Z,63.30
2017-11-19T10:15:19.220Z,63.50
2017-11-19T10:17:46.800Z,63.50
2017-11-19T10:20:14.403Z,63.90
2017-11-19T10:22:41.904Z,63.70
2017-11-19T10:25:09.421Z,63.80
2017-11-19T10:27:36.941Z,63.60
2017-11-19T10:30:04.465Z,63.60
2017-11-19T10:32:31.976Z,63.70
2017-11-19T10:34:59.494Z,63.00
2017-11-19T10:37:27.007Z,62.20
2017-11-19T10:39:55.295Z,63.00
2017-11-19T10:42:23.573Z,63.00
2017-11-19T10:44:51.872Z,63.10
2017-11-19T10:47:19.394Z,63.00
2017-11-19T10:49:46.921Z,62.60
2017-11-19T10:52:14.436Z,62.50
2017-11-19T10:54:41.970Z,62.80
2017-11-19T10:57:09.495Z,63.00
2017-11-19T10:59:37.031Z,63.00
2017-11-19T11:02:04.540Z,62.00
2017-11-19T11:04:32.086Z,61.50
2017-11-19T11:06:59.604Z,61.70
2017-11-19T11:09:27.137Z,61.50
2017-11-19T11:11:55.410Z,61.10
2017-11-19T11:14:23.700Z,61.00
2017-11-19T11:16:51.212Z,60.90
2017-11-19T11:19:18.737Z,61.20
2017-11-19T11:21:46.253Z,60.40
2017-11-19T11:24:13.788Z,60.00
2017-11-19T11:26:41.293Z,59.70
2017-11-19T11:29:08.795Z,59.70
2017-11-19T11:31:36.333Z,59.30
2017-11-19T11:34:03.847Z,58.70
2017-11-19T11:36:31.375Z,58.70
2017-11-19T11:38:58.900Z,58.70
2017-11-19T11:41:26.426Z,58.50
2017-11-19T11:43:53.943Z,59.20
2017-11-19T11:46:21.473Z,58.70
2017-11-19T11:48:48.982Z,58.80
2017-11-19T11:51:16.525Z,58.10
2017-11-19T11:53:44.033Z,57.80
2017-11-19T11:56:12.324Z,57.40
2017-11-19T11:58:40.605Z,57.80
2017-11-19T12:01:08.130Z,57.70
2017-11-19T12:03:35.633Z,57.80
2017-11-19T12:06:03.157Z,56.80
2017-11-19T12:08:30.673Z,57.10
2017-11-19T12:10:58.208Z,57.70
2017-11-19T12:13:25.715Z,58.00
2017-11-19T12:15:53.247Z,56.90
2017-11-19T12:18:20.744Z,56.40
2017-11-19T12:20:48.300Z,56.10
2017-11-19T12:23:15.806Z,55.30
2017-11-19T12:25:43.329Z,55.50
2017-11-19T12:28:10.861Z,55.90
2017-11-19T12:30:38.381Z,56.00
2017-11-19T12:33:05.922Z,55.20
2017-11-19T12:35:34.193Z,55.10
2017-11-19T12:38:02.480Z,55.00
2017-11-19T12:40:30.745Z,55.10
2017-11-19T12:42:58.273Z,54.90
2017-11-19T12:45:25.782Z,54.70
2017-11-19T12:47:53.302Z,55.00
2017-11-19T12:50:20.813Z,55.20
2017-11-19T12:52:48.339Z,55.30
2017-11-19T12:55:15.837Z,55.20
2017-11-19T12:57:43.379Z,55.20
2017-11-19T13:00:10.891Z,55.10
2017-11-19T13:02:38.428Z,55.10
2017-11-19T13:05:05.937Z,55.50
2017-11-19T13:07:34.224Z,55.70
2017-11-19T13:10:02.497Z,56.00
2017-11-19T13:12:30.789Z,56.20
2017-11-19T13:14:59.061Z,56.30
2017-11-19T13:17:27.345Z,56.30
2017-11-19T13:19:54.854Z,56.20
2017-11-19T13:22:22.352Z,56.20
2017-11-19T13:24:49.870Z,56.30
2017-11-19T13:27:17.372Z,56.30
2017-11-19T13:29:45.677Z,56.10
2017-11-19T13:32:13.280Z,56.00
2017-11-19T13:34:40.804Z,54.80
2017-11-19T13:37:08.307Z,55.80
2017-11-19T13:39:35.842Z,55.80
2017-11-19T13:42:03.357Z,55.70
2017-11-19T13:44:30.893Z,55.70
2017-11-19T13:46:59.188Z,55.60
2017-11-19T13:49:26.716Z,55.50
2017-11-19T13:51:54.272Z,55.80
2017-11-19T13:54:21.801Z,56.00
2017-11-19T13:56:49.319Z,55.60
2017-11-19T13:59:17.628Z,55.60
2017-11-19T14:01:45.160Z,55.50
2017-11-19T14:04:13.448Z,56.00
2017-11-19T14:06:40.945Z,55.90
2017-11-19T14:09:08.484Z,55.90
2017-11-19T14:11:35.988Z,56.20
2017-11-19T14:14:03.507Z,56.00
2017-11-19T14:16:31.007Z,56.00
2017-11-19T14:18:58.540Z,56.20
2017-11-19T14:21:26.064Z,56.70
2017-11-19T14:23:53.569Z,56.90
2017-11-19T14:26:21.101Z,56.90
2017-11-19T14:28:48.599Z,56.90
2017-11-19T14:31:16.124Z,56.90
2017-11-19T14:33:43.686Z,56.90
2017-11-19T14:36:11.223Z,56.70
2017-11-19T14:38:38.741Z,56.40
2017-11-19T14:41:06.270Z,56.50
2017-11-19T14:43:33.791Z,56.60
2017-11-19T14:46:01.326Z,56.90
2017-11-19T14:48:29.604Z,57.20
2017-11-19T14:50:57.888Z,57.50
2017-11-19T14:53:26.159Z,57.40
2017-11-19T14:55:54.451Z,56.90
2017-11-19T14:58:21.953Z,56.80
2017-11-19T15:00:50.477Z,56.70
2017-11-19T15:03:18.758Z,57.00
2017-11-19T15:05:47.053Z,56.60
2017-11-19T15:08:14.574Z,56.50
2017-11-19T15:10:42.092Z,56.70
2017-11-19T15:13:09.599Z,56.50
2017-11-19T15:15:37.889Z,56.40
2017-11-19T15:18:06.164Z,56.50
2017-11-19T15:20:34.453Z,56.60
2017-11-19T15:23:02.737Z,56.60
2017-11-19T15:25:30.257Z,56.50
2017-11-19T15:27:57.788Z,56.70
2017-11-19T15:30:25.302Z,57.10
2017-11-19T15:32:52.832Z,57.00
2017-11-19T15:35:20.342Z,56.70
2017-11-19T15:37:47.871Z,56.60
2017-11-19T15:40:15.391Z,56.70
2017-11-19T15:42:42.920Z,56.60
2017-11-19T15:45:10.434Z,56.80
2017-11-19T15:47:37.956Z,56.60
2017-11-19T15:50:06.230Z,56.60
2017-11-19T15:52:33.827Z,56.50
2017-11-19T15:55:01.344Z,56.40
2017-11-19T15:57:28.871Z,56.50
2017-11-19T15:59:56.384Z,56.40
2017-11-19T16:02:23.915Z,56.50
2017-11-19T16:04:51.436Z,56.70
2017-11-19T16:07:18.956Z,56.40
2017-11-19T16:09:47.284Z,56.40
2017-11-19T16:12:15.586Z,56.50
2017-11-19T16:14:43.118Z,56.50
2017-11-19T16:17:11.436Z,57.10
2017-11-19T16:19:38.957Z,57.00
2017-11-19T16:22:07.234Z,57.00
2017-11-19T16:24:35.513Z,57.10
2017-11-19T16:27:03.787Z,57.30
2017-11-19T16:29:32.089Z,57.70
2017-11-19T16:31:59.616Z,57.60
2017-11-19T16:34:27.152Z,57.50
2017-11-19T16:36:54.672Z,57.30
2017-11-19T16:39:22.211Z,57.60
2017-11-19T16:41:50.486Z,57.60
2017-11-19T16:44:18.032Z,57.40
2017-11-19T16:46:45.531Z,57.40
2017-11-19T16:49:13.065Z,57.70
2017-11-19T16:51:41.588Z,57.30
2017-11-19T16:54:09.108Z,57.20
2017-11-19T16:56:36.635Z,57.30
2017-11-19T16:59:04.153Z,57.20
2017-11-19T17:01:31.679Z,57.30
2017-11-19T17:03:59.964Z,57.30
2017-11-19T17:06:28.249Z,57.40
2017-11-19T17:08:55.773Z,57.30
2017-11-19T17:11:23.301Z,57.30
2017-11-19T17:13:50.807Z,57.20
2017-11-19T17:16:19.088Z,57.30
2017-11-19T17:18:47.406Z,57.20
2017-11-19T17:21:14.952Z,57.10
2017-11-19T17:23:42.462Z,57.10
2017-11-19T17:26:09.989Z,56.90
2017-11-19T17:28:37.505Z,56.70
2017-11-19T17:31:05.052Z,56.90
2017-11-19T17:33:32.612Z,56.90
2017-11-19T17:39:07.809Z,56.60
2017-11-19T17:41:36.340Z,56.70
2017-11-19T17:44:03.835Z,57.00
2017-11-19T17:46:31.352Z,56.70
2017-11-19T17:48:58.855Z,56.80
2017-11-19T17:51:26.372Z,56.80
2017-11-19T17:53:53.885Z,56.90
2017-11-19T17:56:21.412Z,56.60
2017-11-19T17:58:49.701Z,55.90
2017-11-19T18:01:18.004Z,56.00
2017-11-19T18:03:45.527Z,56.00
2017-11-19T18:06:13.859Z,56.50
2017-11-19T18:08:41.360Z,56.40
2017-11-19T18:11:09.643Z,56.30
2017-11-19T18:13:37.913Z,56.10
2017-11-19T18:16:06.234Z,56.20
2017-11-19T18:18:33.760Z,56.00
2017-11-19T18:21:02.073Z,55.80
2017-11-19T18:23:29.590Z,55.70
2017-11-19T18:25:57.888Z,55.80
2017-11-19T18:28:25.395Z,55.70
2017-11-19T18:30:53.029Z,55.90
2017-11-19T18:33:20.552Z,55.70
2017-11-19T18:35:48.077Z,55.80
2017-11-19T18:38:15.606Z,56.10
2017-11-19T18:40:43.175Z,56.40
2017-11-19T18:43:10.688Z,55.90
2017-11-19T18:45:38.991Z,55.80
2017-11-19T18:48:06.512Z,55.80
2017-11-19T18:50:34.053Z,55.50
2017-11-19T18:53:01.603Z,55.70
2017-11-19T18:55:29.127Z,55.90
2017-11-19T18:57:56.644Z,55.70
2017-11-19T19:00:24.144Z,56.00
2017-11-19T19:02:51.659Z,55.90
2017-11-19T19:05:19.153Z,55.90
2017-11-19T19:07:47.447Z,56.00
2017-11-19T19:10:15.716Z,56.00
2017-11-19T19:12:43.235Z,55.90
2017-11-19T19:15:10.737Z,56.00
2017-11-19T19:17:38.287Z,55.50
2017-11-19T19:20:05.816Z,55.60
2017-11-19T19:22:33.343Z,55.80
2017-11-19T19:25:00.847Z,55.60
2017-11-19T19:27:29.151Z,56.10
2017-11-19T19:29:56.656Z,56.10
2017-11-19T19:32:24.178Z,55.80
2017-11-19T19:34:51.671Z,55.70
2017-11-19T19:37:19.165Z,55.70
2017-11-19T19:39:46.710Z,55.80
2017-11-19T19:42:14.219Z,55.80
2017-11-19T19:44:41.736Z,55.60
2017-11-19T19:47:10.003Z,55.50
2017-11-19T19:49:37.520Z,55.40
2017-11-19T19:52:05.033Z,55.30
2017-11-19T19:54:33.313Z,55.50
2017-11-19T19:57:01.585Z,55.50
2017-11-19T19:59:29.107Z,55.50
2017-11-19T20:01:56.607Z,55.40
2017-11-19T20:04:24.888Z,55.60
2017-11-19T20:06:53.156Z,55.60
2017-11-19T20:09:21.436Z,55.50
2017-11-19T20:11:49.699Z,55.60
2017-11-19T20:14:17.220Z,55.60
2017-11-19T20:16:44.731Z,55.30
2017-11-19T20:19:12.256Z,55.20
2017-11-19T20:21:39.761Z,55.00
2017-11-19T20:24:07.283Z,55.40
2017-11-19T20:26:34.783Z,55.40
2017-11-19T20:29:02.305Z,55.60
2017-11-19T20:31:29.840Z,55.80
2017-11-19T20:33:57.352Z,55.80
2017-11-19T20:36:24.864Z,55.60
2017-11-19T20:38:52.379Z,55.30
2017-11-19T20:41:19.876Z,55.40
2017-11-19T20:43:47.390Z,55.40
2017-11-19T20:46:15.660Z,55.20
2017-11-19T20:48:43.953Z,55.30
2017-11-19T20:51:11.451Z,55.20
2017-11-19T20:53:39.183Z,55.00
2017-11-19T20:56:06.679Z,54.80
2017-11-19T20:58:34.192Z,54.90
2017-11-19T21:01:01.728Z,54.70
2017-11-19T21:03:30.005Z,55.10
2017-11-19T21:05:58.302Z,55.00
2017-11-19T21:08:25.807Z,55.00
2017-11-19T21:10:53.322Z,54.80
2017-11-19T21:13:20.817Z,54.90
2017-11-19T21:15:48.344Z,54.80
2017-11-19T21:18:15.847Z,54.70
2017-11-19T21:20:44.016Z,55.00
2017-11-19T21:23:11.533Z,54.80
2017-11-19T21:25:39.052Z,54.80
2017-11-19T21:28:06.552Z,55.10
2017-11-19T21:30:34.069Z,55.20
2017-11-19T21:33:01.576Z,55.30
2017-11-19T21:35:29.160Z,55.70
2017-11-19T21:37:56.680Z,55.20
2017-11-19T21:40:24.943Z,55.00
2017-11-19T21:42:53.227Z,55.10
2017-11-19T21:45:20.748Z,55.00
2017-11-19T21:47:48.294Z,54.90
2017-11-19T21:50:15.812Z,54.70
2017-11-19T21:52:43.380Z,54.90
2017-11-19T21:55:10.876Z,55.00
2017-11-19T21:57:38.393Z,54.80
2017-11-19T22:00:06.665Z,55.00
2017-11-19T22:02:34.948Z,55.00
2017-11-19T22:05:02.444Z,54.90
2017-11-19T22:07:29.968Z,54.80
2017-11-19T22:09:57.508Z,54.70
2017-11-19T22:12:25.060Z,54.60
2017-11-19T22:14:52.569Z,54.80
2017-11-19T22:17:20.107Z,55.00
2017-11-19T22:19:47.609Z,55.00
2017-11-19T22:22:15.123Z,55.00
2017-11-19T22:24:42.641Z,55.30
2017-11-19T22:27:10.167Z,55.60
2017-11-19T22:29:37.668Z,55.40
2017-11-19T22:32:05.207Z,55.30
2017-11-19T22:34:32.717Z,55.30
2017-11-19T22:37:00.212Z,55.10
2017-11-19T22:39:27.744Z,55.20
2017-11-19T22:41:55.244Z,55.20
2017-11-19T22:44:22.777Z,54.90
2017-11-19T22:46:50.328Z,55.00
2017-11-19T22:49:17.852Z,55.00
2017-11-19T22:51:46.140Z,55.20
2017-11-19T22:54:14.429Z,55.20
2017-11-19T22:56:41.940Z,55.20
2017-11-19T22:59:09.478Z,55.00
2017-11-19T23:01:36.989Z,54.90
2017-11-19T23:04:05.284Z,54.90
2017-11-19T23:06:32.789Z,54.80
2017-11-19T23:09:00.304Z,54.80
2017-11-19T23:11:27.812Z,55.10
2017-11-19T23:13:55.337Z,55.00
2017-11-19T23:16:22.839Z,55.00
2017-11-19T23:18:50.357Z,55.00
2017-11-19T23:21:17.876Z,54.80
2017-11-19T23:23:46.160Z,54.90
2017-11-19T23:26:13.660Z,54.80
2017-11-19T23:28:41.184Z,55.20
2017-11-19T23:31:09.463Z,55.30
2017-11-19T23:33:36.973Z,55.20
2017-11-19T23:36:04.512Z,55.10
2017-11-19T23:38:32.017Z,54.90
2017-11-19T23:40:59.532Z,55.20
2017-11-19T23:43:27.028Z,55.20
2017-11-19T23:45:54.548Z,55.20
2017-11-19T23:48:22.052Z,55.10
2017-11-19T23:50:49.569Z,55.20
2017-11-19T23:53:17.067Z,55.30
2017-11-19T23:55:44.579Z,55.60
2017-11-19T23:58:12.085Z,55.40
